Time;durP1;ratioP1;P1;durP2;ratioP2;P2;SDS_P1;SDS_P2;PMS_P1;PMS_P2;Temp;Humidity;BMP_temperature;BMP_pressure;BME280_temperature;BME280_humidity;BME280_pressure;Samples;Min_cycle;Max_cycle;Signal;HPM_P1;HPM_P2
2021/04/30 00:01:56;;;;;;;7.63;5.20;;;;;;;;;;3616814;39;20054;-57
2021/04/30 00:04:21;;;;;;;7.30;5.47;;;;;;;;;;3618236;39;20274;-56
2021/04/30 00:06:47;;;;;;;8.40;5.32;;;;;;;;;;3618102;39;20035;-57
2021/04/30 00:09:12;;;;;;;7.20;4.28;;;;;;;;;;3618252;39;20061;-57
2021/04/30 00:11:37;;;;;;;6.43;4.53;;;;;;;;;;3616879;39;20352;-57
2021/04/30 00:14:03;;;;;;;5.93;4.30;;;;;;;;;;3618005;39;20116;-56
2021/04/30 00:16:29;;;;;;;9.88;5.35;;;;;;;;;;3617818;39;20105;-57
2021/04/30 00:18:54;;;;;;;6.40;4.18;;;;;;;;;;3617458;39;20031;-56
2021/04/30 00:21:20;;;;;;;5.65;3.90;;;;;;;;;;3617664;39;20111;-56
2021/04/30 00:23:45;;;;;;;11.15;4.45;;;;;;;;;;3617892;39;20394;-57
2021/04/30 00:26:11;;;;;;;6.72;4.93;;;;;;;;;;3617158;39;20067;-55
2021/04/30 00:28:36;;;;;;;6.40;4.63;;;;;;;;;;3617877;39;20116;-56
2021/04/30 00:31:03;;;;;;;6.15;4.57;;;;;;;;;;3618120;39;20063;-56
2021/04/30 00:33:28;;;;;;;5.88;4.60;;;;;;;;;;3617759;39;20355;-54
2021/04/30 00:35:54;;;;;;;9.00;4.82;;;;;;;;;;3617027;39;20035;-55
2021/04/30 00:38:20;;;;;;;11.85;4.82;;;;;;;;;;3617372;39;20367;-54
2021/04/30 00:40:50;;;;;;;6.35;4.20;;;;;;;;;;3617747;39;20031;-55
2021/04/30 00:43:16;;;;;;;7.38;4.93;;;;;;;;;;3608145;39;20042;-56
2021/04/30 00:45:42;;;;;;;8.75;4.53;;;;;;;;;;3617071;39;20063;-53
2021/04/30 00:48:11;;;;;;;10.73;4.50;;;;;;;;;;3617763;39;20024;-57
2021/04/30 00:50:37;;;;;;;8.27;5.00;;;;;;;;;;3617260;39;20070;-56
2021/04/30 00:53:03;;;;;;;7.28;4.05;;;;;;;;;;3618002;39;20055;-57
2021/04/30 00:55:29;;;;;;;6.53;4.53;;;;;;;;;;3616485;39;20108;-55
2021/04/30 00:57:57;;;;;;;6.80;4.90;;;;;;;;;;3608265;39;20087;-56
2021/04/30 01:00:24;;;;;;;6.45;4.38;;;;;;;;;;3617367;39;20311;-54
2021/04/30 01:02:50;;;;;;;7.45;4.63;;;;;;;;;;3616302;39;20043;-56
2021/04/30 01:05:16;;;;;;;6.40;3.63;;;;;;;;;;3617496;39;20042;-57
2021/04/30 01:07:42;;;;;;;6.22;3.97;;;;;;;;;;3617164;39;20034;-55
2021/04/30 01:10:08;;;;;;;6.57;4.13;;;;;;;;;;3616942;39;20036;-55
2021/04/30 01:12:34;;;;;;;7.47;4.97;;;;;;;;;;3617691;39;20043;-58
2021/04/30 01:15:00;;;;;;;5.68;4.47;;;;;;;;;;3617452;39;20031;-58
2021/04/30 01:17:26;;;;;;;8.35;5.32;;;;;;;;;;3617965;39;20047;-57
2021/04/30 01:19:55;;;;;;;7.82;5.78;;;;;;;;;;3616177;39;20027;-57
2021/04/30 01:22:37;;;;;;;8.25;5.00;;;;;;;;;;3617661;39;20031;-58
2021/04/30 01:25:05;;;;;;;10.05;5.38;;;;;;;;;;3617423;39;20040;-57
2021/04/30 01:27:31;;;;;;;10.27;5.55;;;;;;;;;;3616131;39;20043;-58
2021/04/30 01:29:56;;;;;;;11.07;5.45;;;;;;;;;;3617537;39;20031;-56
2021/04/30 01:32:22;;;;;;;7.32;5.20;;;;;;;;;;3617360;39;20123;-56
2021/04/30 01:34:47;;;;;;;7.85;5.38;;;;;;;;;;3617682;39;20047;-56
2021/04/30 01:37:13;;;;;;;8.27;4.97;;;;;;;;;;3607427;39;20107;-58
2021/04/30 01:39:39;;;;;;;8.02;5.45;;;;;;;;;;3617331;39;20040;-57
2021/04/30 01:42:05;;;;;;;6.43;4.90;;;;;;;;;;3617334;39;20027;-57
2021/04/30 01:44:31;;;;;;;7.50;4.65;;;;;;;;;;3616938;39;20051;-57
2021/04/30 01:46:58;;;;;;;8.18;6.38;;;;;;;;;;3617008;39;20069;-57
2021/04/30 01:49:24;;;;;;;7.68;5.85;;;;;;;;;;3617507;39;20039;-58
2021/04/30 01:51:49;;;;;;;8.55;5.55;;;;;;;;;;3617261;39;20426;-55
2021/04/30 01:54:15;;;;;;;8.50;5.55;;;;;;;;;;3617112;39;20169;-57
2021/04/30 01:56:40;;;;;;;8.35;5.85;;;;;;;;;;3615579;39;20023;-55
2021/04/30 01:59:05;;;;;;;8.27;5.90;;;;;;;;;;3617718;39;20020;-57
2021/04/30 02:01:31;;;;;;;5.57;4.35;;;;;;;;;;3616953;39;20373;-56
2021/04/30 02:03:59;;;;;;;6.65;3.83;;;;;;;;;;3617380;39;20023;-55
2021/04/30 02:06:26;;;;;;;8.38;4.63;;;;;;;;;;3616591;39;20059;-53
2021/04/30 02:08:53;;;;;;;5.90;4.80;;;;;;;;;;3617235;39;20031;-54
2021/04/30 02:11:18;;;;;;;6.50;5.03;;;;;;;;;;3617335;39;20031;-54
2021/04/30 02:13:44;;;;;;;12.05;5.20;;;;;;;;;;3616782;39;20240;-54
2021/04/30 02:16:09;;;;;;;8.30;5.63;;;;;;;;;;3606688;39;20431;-55
2021/04/30 02:18:34;;;;;;;9.55;5.63;;;;;;;;;;3617130;39;20039;-55
2021/04/30 02:21:00;;;;;;;8.05;5.20;;;;;;;;;;3617314;39;20031;-55
2021/04/30 02:23:25;;;;;;;7.15;4.82;;;;;;;;;;3617055;39;20027;-52
2021/04/30 02:25:51;;;;;;;7.97;5.32;;;;;;;;;;3616521;39;20031;-53
2021/04/30 02:28:16;;;;;;;6.28;5.65;;;;;;;;;;3617181;39;20036;-56
2021/04/30 02:30:42;;;;;;;5.80;4.78;;;;;;;;;;3616755;39;20034;-54
2021/04/30 02:33:10;;;;;;;6.95;4.60;;;;;;;;;;3615930;39;20096;-55
2021/04/30 02:35:41;;;;;;;6.65;5.68;;;;;;;;;;3607325;39;20047;-56
2021/04/30 02:38:08;;;;;;;8.65;6.18;;;;;;;;;;3604215;39;20560;-53
2021/04/30 02:40:35;;;;;;;9.85;6.93;;;;;;;;;;3615896;39;20035;-56
2021/04/30 02:43:05;;;;;;;8.23;6.38;;;;;;;;;;3617221;39;20362;-54
2021/04/30 02:45:31;;;;;;;9.20;6.88;;;;;;;;;;3616985;39;20041;-55
2021/04/30 02:47:57;;;;;;;14.75;8.45;;;;;;;;;;3616929;39;20031;-56
2021/04/30 02:50:25;;;;;;;11.57;7.60;;;;;;;;;;3606911;39;20055;-54
2021/04/30 02:52:51;;;;;;;8.82;7.55;;;;;;;;;;3616795;39;20123;-56
2021/04/30 02:55:20;;;;;;;11.15;8.18;;;;;;;;;;3617331;39;20066;-53
2021/04/30 02:57:49;;;;;;;10.00;7.63;;;;;;;;;;3616407;39;20155;-56
2021/04/30 03:00:15;;;;;;;8.20;7.20;;;;;;;;;;3616705;39;20050;-56
2021/04/30 03:02:40;;;;;;;8.10;6.18;;;;;;;;;;3617061;39;20097;-57
2021/04/30 03:05:06;;;;;;;7.90;6.18;;;;;;;;;;3616985;39;20258;-55
2021/04/30 03:07:32;;;;;;;8.55;6.88;;;;;;;;;;3617069;39;20198;-54
2021/04/30 03:09:57;;;;;;;9.15;7.13;;;;;;;;;;3616986;39;20046;-54
2021/04/30 03:12:22;;;;;;;9.52;7.32;;;;;;;;;;3616472;39;20282;-56
2021/04/30 03:14:48;;;;;;;10.43;8.13;;;;;;;;;;3615992;39;20647;-56
2021/04/30 03:17:13;;;;;;;9.02;7.47;;;;;;;;;;3616540;39;20130;-56
2021/04/30 03:19:38;;;;;;;9.25;6.85;;;;;;;;;;3616737;39;20110;-54
2021/04/30 03:22:04;;;;;;;11.25;8.07;;;;;;;;;;3616861;39;20083;-52
2021/04/30 03:24:29;;;;;;;9.88;8.15;;;;;;;;;;3616310;39;20038;-54
2021/04/30 03:26:55;;;;;;;15.80;9.27;;;;;;;;;;3616608;39;20093;-56
2021/04/30 03:29:21;;;;;;;10.18;8.52;;;;;;;;;;3616642;39;20061;-54
2021/04/30 03:31:46;;;;;;;9.20;7.97;;;;;;;;;;3616254;39;20043;-56
2021/04/30 03:34:12;;;;;;;11.07;8.07;;;;;;;;;;3616996;39;20286;-56
2021/04/30 03:36:37;;;;;;;9.27;7.78;;;;;;;;;;3616447;39;20043;-54
2021/04/30 03:39:05;;;;;;;9.13;7.70;;;;;;;;;;3617254;39;20039;-55
2021/04/30 03:41:30;;;;;;;12.85;8.52;;;;;;;;;;3606872;39;20044;-54
2021/04/30 03:43:56;;;;;;;9.15;8.18;;;;;;;;;;3615877;39;20297;-55
2021/04/30 03:46:21;;;;;;;9.73;8.73;;;;;;;;;;3607054;39;20502;-56
2021/04/30 03:48:47;;;;;;;8.63;7.00;;;;;;;;;;3598618;39;20576;-55
2021/04/30 03:51:12;;;;;;;9.20;7.13;;;;;;;;;;3615894;39;20394;-55
2021/04/30 03:53:37;;;;;;;11.60;7.80;;;;;;;;;;3616329;39;20031;-54
2021/04/30 03:56:03;;;;;;;16.00;8.73;;;;;;;;;;3616622;39;20104;-54
2021/04/30 03:58:29;;;;;;;11.18;8.98;;;;;;;;;;3616114;39;20050;-56
2021/04/30 04:00:54;;;;;;;10.23;8.45;;;;;;;;;;3616328;39;20050;-56
2021/04/30 04:03:20;;;;;;;12.45;8.32;;;;;;;;;;3616532;39;20059;-57
2021/04/30 04:05:45;;;;;;;11.93;9.27;;;;;;;;;;3616618;39;20039;-54
2021/04/30 04:08:10;;;;;;;9.73;8.68;;;;;;;;;;3615382;39;20027;-56
2021/04/30 04:10:36;;;;;;;13.57;9.15;;;;;;;;;;3616390;39;20039;-55
2021/04/30 04:13:13;;;;;;;11.32;8.90;;;;;;;;;;3616523;39;20035;-54
2021/04/30 04:15:38;;;;;;;12.13;9.00;;;;;;;;;;3616141;39;20305;-54
2021/04/30 04:18:03;;;;;;;11.35;9.27;;;;;;;;;;3615321;39;20044;-54
2021/04/30 04:20:29;;;;;;;11.27;8.50;;;;;;;;;;3616891;39;20039;-54
2021/04/30 04:22:54;;;;;;;12.55;10.35;;;;;;;;;;3616550;39;20055;-54
2021/04/30 04:25:19;;;;;;;11.90;9.88;;;;;;;;;;3616157;39;20050;-55
2021/04/30 04:27:45;;;;;;;11.68;9.73;;;;;;;;;;3615941;39;20096;-56
2021/04/30 04:30:12;;;;;;;18.05;12.13;;;;;;;;;;3616466;39;20038;-53
2021/04/30 04:32:38;;;;;;;12.85;9.32;;;;;;;;;;3615415;39;20131;-54
2021/04/30 04:35:04;;;;;;;11.23;8.95;;;;;;;;;;3616435;39;20492;-55
2021/04/30 04:37:29;;;;;;;11.65;8.82;;;;;;;;;;3615729;39;20414;-52
2021/04/30 04:39:55;;;;;;;10.38;8.63;;;;;;;;;;3617314;39;20278;-54
2021/04/30 04:42:20;;;;;;;11.45;9.23;;;;;;;;;;3617397;39;20123;-55
2021/04/30 04:44:46;;;;;;;10.80;8.93;;;;;;;;;;3616373;39;20402;-55
2021/04/30 04:47:11;;;;;;;11.55;8.77;;;;;;;;;;3617820;39;20027;-55
2021/04/30 04:49:36;;;;;;;11.70;9.02;;;;;;;;;;3607812;39;20046;-56
2021/04/30 04:52:02;;;;;;;10.60;9.38;;;;;;;;;;3618027;39;20347;-53
2021/04/30 04:54:28;;;;;;;11.30;8.68;;;;;;;;;;3617236;39;20047;-53
2021/04/30 04:56:53;;;;;;;13.00;8.82;;;;;;;;;;3618032;39;20059;-53
2021/04/30 04:59:19;;;;;;;9.80;8.80;;;;;;;;;;3617727;39;20039;-54
2021/04/30 05:01:44;;;;;;;10.68;9.57;;;;;;;;;;3617611;39;20440;-55
2021/04/30 05:04:09;;;;;;;11.15;9.20;;;;;;;;;;3617423;39;20390;-56
2021/04/30 05:06:35;;;;;;;10.32;9.32;;;;;;;;;;3617691;39;20027;-56
2021/04/30 05:09:00;;;;;;;10.80;9.70;;;;;;;;;;3616939;39;20035;-54
2021/04/30 05:11:26;;;;;;;10.40;9.25;;;;;;;;;;3617876;39;20046;-55
2021/04/30 05:13:51;;;;;;;14.25;10.95;;;;;;;;;;3617058;39;20328;-55
2021/04/30 05:16:16;;;;;;;13.15;10.05;;;;;;;;;;3617248;39;20027;-55
2021/04/30 05:18:42;;;;;;;12.15;10.88;;;;;;;;;;3616453;39;20043;-57
2021/04/30 05:21:08;;;;;;;14.57;11.10;;;;;;;;;;3617595;39;20394;-56
2021/04/30 05:23:36;;;;;;;15.95;12.02;;;;;;;;;;3607929;39;20034;-57
2021/04/30 05:26:02;;;;;;;14.75;10.48;;;;;;;;;;3617572;39;20040;-55
2021/04/30 05:28:29;;;;;;;16.80;11.65;;;;;;;;;;3617042;39;20031;-56
2021/04/30 05:30:54;;;;;;;14.82;10.68;;;;;;;;;;3617962;39;20285;-56
2021/04/30 05:33:20;;;;;;;14.10;11.23;;;;;;;;;;3617939;39;20031;-57
2021/04/30 05:35:45;;;;;;;14.18;11.50;;;;;;;;;;3617123;39;20282;-57
2021/04/30 05:38:11;;;;;;;14.65;12.18;;;;;;;;;;3617827;39;20145;-56
2021/04/30 05:40:36;;;;;;;13.07;11.15;;;;;;;;;;3617401;39;20463;-56
2021/04/30 05:43:02;;;;;;;18.77;11.75;;;;;;;;;;3617503;39;20027;-57
2021/04/30 05:45:27;;;;;;;15.07;11.45;;;;;;;;;;3617329;39;20031;-54
2021/04/30 05:47:53;;;;;;;14.63;11.27;;;;;;;;;;3616999;39;20486;-57
2021/04/30 05:50:19;;;;;;;13.35;11.25;;;;;;;;;;3616697;39;20030;-57
2021/04/30 05:52:44;;;;;;;21.58;12.02;;;;;;;;;;3617357;39;20110;-57
2021/04/30 05:55:10;;;;;;;15.05;11.90;;;;;;;;;;3615834;39;20039;-57
2021/04/30 05:57:37;;;;;;;16.35;11.93;;;;;;;;;;3617018;39;20039;-56
2021/04/30 06:00:05;;;;;;;20.10;12.55;;;;;;;;;;3617342;39;20372;-57
2021/04/30 06:02:30;;;;;;;17.17;12.30;;;;;;;;;;3606976;39;20267;-57
2021/04/30 06:04:55;;;;;;;15.38;11.88;;;;;;;;;;3616946;39;20123;-57
2021/04/30 06:07:21;;;;;;;15.32;12.48;;;;;;;;;;3614772;39;20136;-57
2021/04/30 06:09:46;;;;;;;17.08;12.98;;;;;;;;;;3615467;39;20035;-57
2021/04/30 06:12:12;;;;;;;18.73;13.63;;;;;;;;;;3616666;39;20034;-54
2021/04/30 06:14:37;;;;;;;15.32;12.23;;;;;;;;;;3613703;39;20058;-57
2021/04/30 06:17:03;;;;;;;16.40;13.23;;;;;;;;;;3613385;39;20291;-57
2021/04/30 06:19:28;;;;;;;19.85;13.25;;;;;;;;;;3614928;39;20039;-57
2021/04/30 06:22:02;;;;;;;17.13;13.25;;;;;;;;;;3614258;39;20047;-58
2021/04/30 06:24:28;;;;;;;20.23;13.35;;;;;;;;;;3614913;39;20043;-57
2021/04/30 06:26:54;;;;;;;18.08;14.13;;;;;;;;;;3595863;39;20107;-57
2021/04/30 06:29:19;;;;;;;18.83;14.38;;;;;;;;;;3605714;39;20046;-58
2021/04/30 06:31:45;;;;;;;19.58;13.93;;;;;;;;;;3604576;39;20039;-56
2021/04/30 06:34:10;;;;;;;21.75;16.05;;;;;;;;;;3615594;39;20123;-58
2021/04/30 06:36:36;;;;;;;20.13;14.10;;;;;;;;;;3615463;39;20359;-57
2021/04/30 06:39:03;;;;;;;16.95;14.23;;;;;;;;;;3615325;39;20043;-57
2021/04/30 06:41:28;;;;;;;20.92;15.10;;;;;;;;;;3615091;39;20051;-56
2021/04/30 06:43:54;;;;;;;17.33;14.52;;;;;;;;;;3615306;39;20047;-57
2021/04/30 06:46:21;;;;;;;19.77;15.25;;;;;;;;;;3605869;39;20038;-58
2021/04/30 06:48:47;;;;;;;18.50;13.98;;;;;;;;;;3615195;39;20055;-57
2021/04/30 06:51:13;;;;;;;15.93;13.45;;;;;;;;;;3613231;39;20054;-58
2021/04/30 06:53:38;;;;;;;16.45;14.63;;;;;;;;;;3604904;39;20091;-59
2021/04/30 06:56:04;;;;;;;24.27;15.90;;;;;;;;;;3615583;39;20035;-59
2021/04/30 06:58:29;;;;;;;17.98;14.32;;;;;;;;;;3614713;39;20033;-58
2021/04/30 07:00:55;;;;;;;17.52;14.85;;;;;;;;;;3614839;39;20031;-59
2021/04/30 07:03:21;;;;;;;15.93;13.93;;;;;;;;;;3614869;39;20559;-58
2021/04/30 07:05:47;;;;;;;19.13;14.60;;;;;;;;;;3615645;39;20571;-57
2021/04/30 07:08:12;;;;;;;18.55;14.38;;;;;;;;;;3613999;39;20031;-57
2021/04/30 07:10:38;;;;;;;17.00;14.55;;;;;;;;;;3613955;39;20442;-58
2021/04/30 07:13:11;;;;;;;15.90;13.48;;;;;;;;;;3614321;39;20039;-57
2021/04/30 07:15:36;;;;;;;16.67;13.95;;;;;;;;;;3615295;39;20038;-56
2021/04/30 07:18:02;;;;;;;16.92;14.55;;;;;;;;;;3616388;39;20043;-58
2021/04/30 07:20:28;;;;;;;19.33;14.38;;;;;;;;;;3617023;39;20050;-57
2021/04/30 07:22:54;;;;;;;17.88;14.27;;;;;;;;;;3616592;39;20055;-58
2021/04/30 07:25:19;;;;;;;18.40;14.02;;;;;;;;;;3616080;39;20119;-57
2021/04/30 07:27:44;;;;;;;17.40;15.60;;;;;;;;;;3616815;39;20037;-57
2021/04/30 07:30:10;;;;;;;17.42;14.98;;;;;;;;;;3616435;39;20035;-56
2021/04/30 07:32:36;;;;;;;15.98;13.80;;;;;;;;;;3616640;39;20035;-56
2021/04/30 07:35:01;;;;;;;18.58;15.30;;;;;;;;;;3616803;39;20050;-58
2021/04/30 07:37:27;;;;;;;24.10;15.77;;;;;;;;;;3614235;39;20035;-57
2021/04/30 07:39:52;;;;;;;20.60;14.93;;;;;;;;;;3613755;39;20504;-58
2021/04/30 07:42:18;;;;;;;17.95;15.65;;;;;;;;;;3614994;39;20141;-58
2021/04/30 07:44:43;;;;;;;18.17;15.70;;;;;;;;;;3616773;39;20550;-58
2021/04/30 07:47:09;;;;;;;17.92;15.07;;;;;;;;;;3615613;39;20031;-57
2021/04/30 07:49:34;;;;;;;18.60;15.02;;;;;;;;;;3613389;39;20373;-57
2021/04/30 07:52:00;;;;;;;20.80;15.35;;;;;;;;;;3613417;39;20398;-58
2021/04/30 07:54:25;;;;;;;18.17;14.60;;;;;;;;;;3616087;39;20046;-58
2021/04/30 07:56:50;;;;;;;20.58;15.93;;;;;;;;;;3616557;39;20051;-58
2021/04/30 07:59:17;;;;;;;18.95;15.63;;;;;;;;;;3615010;39;20055;-59
2021/04/30 08:01:42;;;;;;;16.67;14.00;;;;;;;;;;3616509;39;20140;-57
2021/04/30 08:04:07;;;;;;;16.75;14.55;;;;;;;;;;3616432;39;20406;-58
2021/04/30 08:06:33;;;;;;;21.10;15.43;;;;;;;;;;3616257;39;20051;-57
2021/04/30 08:08:58;;;;;;;18.48;15.02;;;;;;;;;;3614778;39;20133;-58
2021/04/30 08:11:24;;;;;;;18.75;15.23;;;;;;;;;;3616525;39;20055;-59
2021/04/30 08:13:50;;;;;;;17.05;14.90;;;;;;;;;;3617786;39;20972;-58
2021/04/30 08:16:15;;;;;;;24.02;14.55;;;;;;;;;;3616896;39;20055;-57
2021/04/30 08:18:41;;;;;;;20.08;14.90;;;;;;;;;;3617624;39;20039;-57
2021/04/30 08:21:07;;;;;;;26.45;15.27;;;;;;;;;;3617893;39;20043;-58
2021/04/30 08:23:33;;;;;;;22.08;14.63;;;;;;;;;;3617415;39;20379;-58
2021/04/30 08:25:59;;;;;;;15.93;13.77;;;;;;;;;;3617133;39;20406;-58
2021/04/30 08:28:26;;;;;;;18.23;14.50;;;;;;;;;;3616954;39;20032;-58
2021/04/30 08:30:51;;;;;;;18.23;14.25;;;;;;;;;;3617439;39;20042;-58
2021/04/30 08:33:17;;;;;;;17.17;13.63;;;;;;;;;;3616929;39;20040;-59
2021/04/30 08:35:42;;;;;;;18.65;13.85;;;;;;;;;;3617574;39;20063;-58
2021/04/30 08:38:07;;;;;;;18.75;13.50;;;;;;;;;;3617422;39;20023;-58
2021/04/30 08:40:33;;;;;;;19.58;14.07;;;;;;;;;;3616353;39;20031;-59
2021/04/30 08:42:59;;;;;;;17.02;13.30;;;;;;;;;;3617694;39;20124;-58
2021/04/30 08:45:26;;;;;;;19.83;13.60;;;;;;;;;;3617251;39;20035;-58
2021/04/30 08:47:51;;;;;;;24.58;14.25;;;;;;;;;;3617738;39;20092;-58
2021/04/30 08:50:17;;;;;;;13.77;12.30;;;;;;;;;;3617186;39;20070;-58
2021/04/30 08:52:42;;;;;;;15.13;12.18;;;;;;;;;;3608319;39;20038;-58
2021/04/30 08:55:13;;;;;;;15.10;11.73;;;;;;;;;;3617555;39;20188;-57
2021/04/30 08:57:40;;;;;;;17.98;12.70;;;;;;;;;;3617154;39;20043;-59
2021/04/30 09:00:07;;;;;;;18.63;12.90;;;;;;;;;;3617480;39;20032;-58
2021/04/30 09:02:35;;;;;;;18.98;12.88;;;;;;;;;;3617490;39;20080;-58
2021/04/30 09:05:00;;;;;;;16.83;13.30;;;;;;;;;;3616361;39;20054;-57
2021/04/30 09:07:26;;;;;;;16.20;12.07;;;;;;;;;;3616459;39;20043;-58
2021/04/30 09:10:13;;;;;;;18.02;13.07;;;;;;;;;;3617247;39;20031;-58
2021/04/30 09:12:41;;;;;;;16.08;12.98;;;;;;;;;;3617358;39;20350;-57
2021/04/30 09:15:18;;;;;;;16.30;12.77;;;;;;;;;;3617128;39;20043;-56
2021/04/30 09:17:45;;;;;;;17.13;12.45;;;;;;;;;;3617511;39;20042;-57
2021/04/30 09:20:11;;;;;;;14.93;12.80;;;;;;;;;;3617661;39;20085;-57
2021/04/30 09:22:40;;;;;;;15.18;12.77;;;;;;;;;;3616213;39;20046;-56
2021/04/30 09:25:07;;;;;;;14.80;12.52;;;;;;;;;;3617573;39;20070;-56
2021/04/30 09:27:50;;;;;;;16.25;12.32;;;;;;;;;;3617245;39;20124;-57
2021/04/30 09:30:28;;;;;;;17.77;13.55;;;;;;;;;;3615185;39;20031;-57
2021/04/30 09:33:03;;;;;;;18.55;13.32;;;;;;;;;;3617178;39;20039;-56
2021/04/30 09:35:28;;;;;;;17.65;11.88;;;;;;;;;;3617464;39;20024;-57
2021/04/30 09:37:56;;;;;;;21.52;12.57;;;;;;;;;;3616999;39;20050;-56
2021/04/30 09:40:29;;;;;;;19.20;13.38;;;;;;;;;;3615735;39;20028;-56
2021/04/30 09:43:03;;;;;;;21.85;14.15;;;;;;;;;;3608002;39;20051;-56
2021/04/30 09:45:30;;;;;;;18.90;13.10;;;;;;;;;;3617069;39;20045;-56
2021/04/30 09:47:59;;;;;;;16.13;12.90;;;;;;;;;;3617232;39;20190;-57
2021/04/30 09:50:27;;;;;;;15.45;12.15;;;;;;;;;;3604208;39;20038;-57
2021/04/30 09:53:01;;;;;;;14.35;11.85;;;;;;;;;;3617450;39;20043;-57
2021/04/30 09:55:45;;;;;;;17.25;13.32;;;;;;;;;;3616740;39;20081;-56
2021/04/30 09:58:43;;;;;;;17.63;14.70;;;;;;;;;;3616688;39;20262;-57
2021/04/30 10:01:22;;;;;;;15.13;13.35;;;;;;;;;;3616242;39;20159;-57
2021/04/30 10:03:47;;;;;;;17.13;12.45;;;;;;;;;;3617301;39;20027;-57
2021/04/30 10:06:19;;;;;;;17.25;13.68;;;;;;;;;;3614814;39;20050;-57
2021/04/30 10:09:10;;;;;;;16.42;12.98;;;;;;;;;;3616221;39;20031;-52
2021/04/30 10:11:36;;;;;;;21.70;15.52;;;;;;;;;;3616973;39;20039;-56
2021/04/30 10:14:02;;;;;;;18.10;12.85;;;;;;;;;;3616452;39;20035;-58
2021/04/30 10:16:28;;;;;;;14.60;12.48;;;;;;;;;;3615065;39;20035;-58
2021/04/30 10:18:53;;;;;;;19.58;12.38;;;;;;;;;;3616988;39;20039;-57
2021/04/30 10:21:20;;;;;;;17.20;11.45;;;;;;;;;;3616037;39;20031;-58
2021/04/30 10:23:48;;;;;;;14.27;12.18;;;;;;;;;;3613600;39;21279;-58
2021/04/30 10:26:18;;;;;;;14.02;12.50;;;;;;;;;;3615926;39;20027;-57
2021/04/30 10:28:56;;;;;;;19.38;12.80;;;;;;;;;;3616218;39;20039;-56
2021/04/30 10:31:44;;;;;;;13.98;12.57;;;;;;;;;;3616023;39;20051;-58
2021/04/30 10:34:21;;;;;;;13.85;12.27;;;;;;;;;;3616125;39;20047;-57
2021/04/30 10:36:50;;;;;;;15.73;12.30;;;;;;;;;;3615391;39;20031;-57
2021/04/30 10:39:28;;;;;;;18.13;11.65;;;;;;;;;;3615786;39;20859;-58
2021/04/30 10:41:55;;;;;;;22.27;12.38;;;;;;;;;;3616518;39;20030;-58
2021/04/30 10:44:22;;;;;;;12.48;10.95;;;;;;;;;;3616991;39;20060;-56
2021/04/30 10:47:01;;;;;;;13.60;11.50;;;;;;;;;;3617250;39;20358;-55
2021/04/30 10:49:26;;;;;;;16.60;11.32;;;;;;;;;;3616788;39;20279;-55
2021/04/30 10:52:04;;;;;;;15.40;11.30;;;;;;;;;;3615812;39;20090;-55
2021/04/30 10:54:35;;;;;;;14.48;11.38;;;;;;;;;;3616591;39;20493;-57
2021/04/30 10:57:11;;;;;;;15.40;11.43;;;;;;;;;;3615338;39;20389;-59
2021/04/30 10:59:37;;;;;;;13.32;11.73;;;;;;;;;;3615863;39;20042;-59
2021/04/30 11:02:18;;;;;;;17.80;10.93;;;;;;;;;;3615931;39;20043;-59
2021/04/30 11:05:02;;;;;;;15.88;12.25;;;;;;;;;;3615767;39;20051;-59
2021/04/30 11:07:29;;;;;;;13.75;11.90;;;;;;;;;;3615228;39;20049;-59
2021/04/30 11:09:54;;;;;;;16.38;11.95;;;;;;;;;;3616948;39;20908;-59
2021/04/30 11:12:22;;;;;;;15.70;12.23;;;;;;;;;;3616243;39;20051;-59
2021/04/30 11:15:02;;;;;;;20.70;12.18;;;;;;;;;;3616350;39;20120;-58
2021/04/30 11:17:48;;;;;;;19.50;12.77;;;;;;;;;;3614810;39;20047;-58
2021/04/30 11:20:17;;;;;;;14.95;11.73;;;;;;;;;;3616395;39;20031;-59
2021/04/30 11:23:18;;;;;;;16.67;11.35;;;;;;;;;;3617058;39;20037;-58
2021/04/30 11:25:59;;;;;;;13.00;11.52;;;;;;;;;;3614450;39;20038;-58
2021/04/30 11:28:24;;;;;;;;;;;;;;;;;;3616870;39;20043;-59
2021/04/30 11:31:07;;;;;;;19.88;12.18;;;;;;;;;;3616653;39;20203;-59
2021/04/30 11:33:35;;;;;;;13.68;10.55;;;;;;;;;;3615330;39;20370;-59
2021/04/30 11:36:02;;;;;;;14.70;10.95;;;;;;;;;;3615998;39;20097;-59
2021/04/30 11:38:36;;;;;;;16.35;12.02;;;;;;;;;;3607176;39;20367;-59
2021/04/30 11:41:02;;;;;;;16.25;10.93;;;;;;;;;;3614059;39;20082;-58
2021/04/30 11:43:28;;;;;;;15.43;11.93;;;;;;;;;;3614092;39;20073;-60
2021/04/30 11:45:55;;;;;;;15.95;11.32;;;;;;;;;;3615245;39;20047;-60
2021/04/30 11:48:24;;;;;;;15.70;11.05;;;;;;;;;;3616711;39;20031;-59
2021/04/30 11:51:03;;;;;;;19.65;12.90;;;;;;;;;;3615378;39;20032;-60
2021/04/30 11:53:30;;;;;;;15.27;11.18;;;;;;;;;;3617438;39;20027;-59
2021/04/30 11:55:57;;;;;;;14.90;12.20;;;;;;;;;;3617997;39;20208;-59
2021/04/30 11:58:46;;;;;;;12.88;11.13;;;;;;;;;;3616687;39;20031;-60
2021/04/30 12:01:13;;;;;;;15.50;11.85;;;;;;;;;;3617458;39;20039;-59
2021/04/30 12:03:47;;;;;;;16.58;11.43;;;;;;;;;;3617126;39;20035;-60
2021/04/30 12:06:17;;;;;;;13.52;10.32;;;;;;;;;;3617734;39;20035;-56
2021/04/30 12:08:44;;;;;;;12.65;10.43;;;;;;;;;;3616062;39;20043;-57
2021/04/30 12:11:28;;;;;;;14.18;11.43;;;;;;;;;;3606819;39;20051;-56
2021/04/30 12:13:57;;;;;;;15.82;10.60;;;;;;;;;;3607901;39;20397;-58
2021/04/30 12:16:23;;;;;;;14.65;10.68;;;;;;;;;;3615689;39;20368;-57
2021/04/30 12:18:52;;;;;;;13.18;10.88;;;;;;;;;;3616798;39;20343;-56
2021/04/30 12:21:27;;;;;;;17.42;11.45;;;;;;;;;;3617860;39;20039;-56
2021/04/30 12:23:54;;;;;;;45.53;31.42;;;;;;;;;;3617285;39;20584;-59
2021/04/30 12:26:27;;;;;;;26.20;18.00;;;;;;;;;;3616938;39;20039;-59
2021/04/30 12:28:56;;;;;;;18.98;14.45;;;;;;;;;;3617541;39;20035;-58
2021/04/30 12:31:23;;;;;;;14.95;11.40;;;;;;;;;;3616817;39;20127;-58
2021/04/30 12:33:49;;;;;;;20.08;11.30;;;;;;;;;;3617699;39;20039;-58
2021/04/30 12:36:26;;;;;;;10.73;8.90;;;;;;;;;;3616259;39;20031;-57
2021/04/30 12:38:57;;;;;;;12.55;9.70;;;;;;;;;;3616546;39;21006;-59
2021/04/30 12:41:34;;;;;;;14.60;10.38;;;;;;;;;;3617362;39;20035;-59
2021/04/30 12:44:02;;;;;;;11.55;9.30;;;;;;;;;;3614159;39;20120;-59
2021/04/30 12:46:32;;;;;;;12.40;9.45;;;;;;;;;;3617317;39;20039;-59
2021/04/30 12:49:06;;;;;;;15.43;11.00;;;;;;;;;;3617550;39;20120;-58
2021/04/30 12:51:35;;;;;;;15.93;10.80;;;;;;;;;;3617464;39;20131;-59
2021/04/30 12:54:01;;;;;;;16.30;10.70;;;;;;;;;;3615532;39;20046;-59
2021/04/30 12:56:29;;;;;;;13.77;10.23;;;;;;;;;;3617191;39;20130;-59
2021/04/30 12:59:04;;;;;;;13.75;11.27;;;;;;;;;;3617511;39;20055;-59
2021/04/30 13:01:30;;;;;;;14.93;11.32;;;;;;;;;;3617353;39;20084;-59
2021/04/30 13:03:56;;;;;;;17.85;10.60;;;;;;;;;;3616262;39;20031;-60
2021/04/30 13:06:22;;;;;;;10.98;9.60;;;;;;;;;;3616595;39;20031;-59
2021/04/30 13:08:48;;;;;;;12.57;9.88;;;;;;;;;;3617896;39;20031;-60
2021/04/30 13:11:16;;;;;;;18.25;9.82;;;;;;;;;;3615956;39;20046;-60
2021/04/30 13:13:57;;;;;;;17.23;10.20;;;;;;;;;;3615888;39;20396;-60
2021/04/30 13:16:37;;;;;;;17.23;10.35;;;;;;;;;;3617223;39;20478;-60
2021/04/30 13:19:15;;;;;;;11.38;10.00;;;;;;;;;;3615119;39;20039;-60
2021/04/30 13:21:47;;;;;;;13.95;9.93;;;;;;;;;;3614574;39;20042;-60
2021/04/30 13:24:18;;;;;;;14.32;10.10;;;;;;;;;;3616436;39;20035;-60
2021/04/30 13:26:57;;;;;;;13.00;9.32;;;;;;;;;;3616658;39;20067;-60
2021/04/30 13:29:23;;;;;;;18.00;9.82;;;;;;;;;;3617111;39;20034;-60
2021/04/30 13:32:04;;;;;;;12.85;9.65;;;;;;;;;;3616695;39;20549;-60
2021/04/30 13:34:52;;;;;;;11.48;8.93;;;;;;;;;;3616375;39;20027;-59
2021/04/30 13:37:22;;;;;;;15.10;9.85;;;;;;;;;;3617147;39;20041;-59
2021/04/30 13:39:50;;;;;;;14.13;10.18;;;;;;;;;;3617165;39;20143;-59
2021/04/30 13:42:18;;;;;;;12.55;9.93;;;;;;;;;;3616887;39;20031;-59
2021/04/30 13:44:59;;;;;;;12.45;9.70;;;;;;;;;;3616032;39;20069;-58
2021/04/30 13:47:37;;;;;;;19.92;10.05;;;;;;;;;;3617418;39;20035;-58
2021/04/30 13:50:09;;;;;;;10.98;9.00;;;;;;;;;;3615080;39;20433;-59
2021/04/30 13:52:36;;;;;;;17.25;9.85;;;;;;;;;;3615274;39;20262;-59
2021/04/30 13:55:01;;;;;;;13.55;10.07;;;;;;;;;;3615465;39;20027;-59
2021/04/30 13:57:27;;;;;;;15.88;9.48;;;;;;;;;;3615775;39;20039;-58
2021/04/30 13:59:53;;;;;;;11.43;9.68;;;;;;;;;;3617390;39;20385;-58
2021/04/30 14:02:20;;;;;;;15.15;10.20;;;;;;;;;;3617281;39;20031;-58
2021/04/30 14:04:46;;;;;;;12.05;9.35;;;;;;;;;;3617103;39;20115;-58
2021/04/30 14:07:13;;;;;;;13.85;10.68;;;;;;;;;;3615977;39;20035;-57
2021/04/30 14:09:40;;;;;;;13.90;11.55;;;;;;;;;;3616006;39;20112;-58
2021/04/30 14:12:06;;;;;;;20.58;12.80;;;;;;;;;;3617007;39;20435;-58
2021/04/30 14:14:32;;;;;;;18.55;13.38;;;;;;;;;;3615257;39;20423;-58
2021/04/30 14:16:58;;;;;;;17.38;12.55;;;;;;;;;;3617581;39;20275;-59
2021/04/30 14:19:24;;;;;;;14.55;12.65;;;;;;;;;;3617049;39;20128;-59
2021/04/30 14:21:49;;;;;;;17.98;13.20;;;;;;;;;;3617314;39;20027;-59
2021/04/30 14:24:16;;;;;;;18.00;14.77;;;;;;;;;;3617200;39;20023;-58
2021/04/30 14:26:41;;;;;;;15.32;12.82;;;;;;;;;;3615591;39;20044;-58
2021/04/30 14:29:07;;;;;;;15.50;11.88;;;;;;;;;;3617321;39;20399;-58
2021/04/30 14:31:33;;;;;;;15.70;13.27;;;;;;;;;;3617088;39;20046;-58